sensor_id;sensor_type;location;lat;lon;timestamp;temperature;humidity
12872;DHT22;6504;53.766;9.626;2023-04-06T00:02:16;3.70;99.90
12872;DHT22;6504;53.766;9.626;2023-04-06T00:04:45;3.70;99.90
12872;DHT22;6504;53.766;9.626;2023-04-06T00:07:14;3.70;99.90
12872;DHT22;6504;53.766;9.626;2023-04-06T00:09:42;3.70;99.90
12872;DHT22;6504;53.766;9.626;2023-04-06T00:12:10;3.60;99.90
12872;DHT22;6504;53.766;9.626;2023-04-06T00:14:38;3.60;99.90
12872;DHT22;6504;53.766;9.626;2023-04-06T00:17:07;3.60;99.90
12872;DHT22;6504;53.766;9.626;2023-04-06T00:19:36;3.60;99.90
12872;DHT22;6504;53.766;9.626;2023-04-06T00:22:04;3.60;99.90
12872;DHT22;6504;53.766;9.626;2023-04-06T00:24:33;3.60;99.90
12872;DHT22;6504;53.766;9.626;2023-04-06T00:27:02;3.60;99.90
12872;DHT22;6504;53.766;9.626;2023-04-06T00:29:30;3.60;99.90
12872;DHT22;6504;53.766;9.626;2023-04-06T00:31:58;3.50;99.90
12872;DHT22;6504;53.766;9.626;2023-04-06T00:34:26;3.50;99.90
12872;DHT22;6504;53.766;9.626;2023-04-06T00:36:54;3.50;99.90
12872;DHT22;6504;53.766;9.626;2023-04-06T00:39:23;3.40;99.90
12872;DHT22;6504;53.766;9.626;2023-04-06T00:41:52;3.40;99.90
12872;DHT22;6504;53.766;9.626;2023-04-06T00:44:21;3.40;99.90
12872;DHT22;6504;53.766;9.626;2023-04-06T00:46:50;3.40;99.90
12872;DHT22;6504;53.766;9.626;2023-04-06T00:49:18;3.40;99.90
12872;DHT22;6504;53.766;9.626;2023-04-06T00:51:47;3.40;99.90
12872;DHT22;6504;53.766;9.626;2023-04-06T00:54:15;3.30;99.90
12872;DHT22;6504;53.766;9.626;2023-04-06T00:56:43;3.30;99.90
12872;DHT22;6504;53.766;9.626;2023-04-06T00:59:12;3.30;99.90
12872;DHT22;6504;53.766;9.626;2023-04-06T01:01:41;3.30;99.90
12872;DHT22;6504;53.766;9.626;2023-04-06T01:04:09;3.20;99.90
12872;DHT22;6504;53.766;9.626;2023-04-06T01:06:37;3.10;99.90
12872;DHT22;6504;53.766;9.626;2023-04-06T01:09:05;3.10;99.90
12872;DHT22;6504;53.766;9.626;2023-04-06T01:11:35;3.00;99.90
12872;DHT22;6504;53.766;9.626;2023-04-06T01:14:03;3.00;99.90
12872;DHT22;6504;53.766;9.626;2023-04-06T01:16:33;3.00;99.90
12872;DHT22;6504;53.766;9.626;2023-04-06T01:19:04;3.00;99.90
12872;DHT22;6504;53.766;9.626;2023-04-06T01:21:35;2.90;99.90
12872;DHT22;6504;53.766;9.626;2023-04-06T01:24:05;2.90;99.90
12872;DHT22;6504;53.766;9.626;2023-04-06T01:26:34;2.80;99.90
12872;DHT22;6504;53.766;9.626;2023-04-06T01:29:02;2.80;99.90
12872;DHT22;6504;53.766;9.626;2023-04-06T01:31:31;2.80;99.90
12872;DHT22;6504;53.766;9.626;2023-04-06T01:33:59;2.80;99.90
12872;DHT22;6504;53.766;9.626;2023-04-06T01:36:27;2.70;99.90
12872;DHT22;6504;53.766;9.626;2023-04-06T01:38:55;2.70;99.90
12872;DHT22;6504;53.766;9.626;2023-04-06T01:41:25;2.70;99.90
12872;DHT22;6504;53.766;9.626;2023-04-06T01:43:53;2.60;99.90
12872;DHT22;6504;53.766;9.626;2023-04-06T01:46:22;2.60;99.90
12872;DHT22;6504;53.766;9.626;2023-04-06T01:48:50;2.60;99.90
12872;DHT22;6504;53.766;9.626;2023-04-06T01:51:18;2.60;99.90
12872;DHT22;6504;53.766;9.626;2023-04-06T01:53:46;2.50;99.90
12872;DHT22;6504;53.766;9.626;2023-04-06T01:56:15;2.50;99.90
12872;DHT22;6504;53.766;9.626;2023-04-06T01:58:45;2.50;99.90
12872;DHT22;6504;53.766;9.626;2023-04-06T02:01:13;2.40;99.90
12872;DHT22;6504;53.766;9.626;2023-04-06T02:03:42;2.40;99.90
12872;DHT22;6504;53.766;9.626;2023-04-06T02:06:10;2.30;99.90
12872;DHT22;6504;53.766;9.626;2023-04-06T02:08:38;2.30;99.90
12872;DHT22;6504;53.766;9.626;2023-04-06T02:11:06;2.30;99.90
12872;DHT22;6504;53.766;9.626;2023-04-06T02:13:35;2.30;99.90
12872;DHT22;6504;53.766;9.626;2023-04-06T02:16:05;2.30;99.90
12872;DHT22;6504;53.766;9.626;2023-04-06T02:18:33;2.20;99.90
12872;DHT22;6504;53.766;9.626;2023-04-06T02:21:02;2.20;99.90
12872;DHT22;6504;53.766;9.626;2023-04-06T02:23:30;2.20;99.90
12872;DHT22;6504;53.766;9.626;2023-04-06T02:25:58;2.20;99.90
12872;DHT22;6504;53.766;9.626;2023-04-06T02:28:26;2.20;99.90
12872;DHT22;6504;53.766;9.626;2023-04-06T02:30:54;2.20;99.90
12872;DHT22;6504;53.766;9.626;2023-04-06T02:33:24;2.20;99.90
12872;DHT22;6504;53.766;9.626;2023-04-06T02:35:52;2.20;99.90
12872;DHT22;6504;53.766;9.626;2023-04-06T02:38:20;2.10;99.90
12872;DHT22;6504;53.766;9.626;2023-04-06T02:40:48;2.10;99.90
12872;DHT22;6504;53.766;9.626;2023-04-06T02:43:16;2.00;99.90
12872;DHT22;6504;53.766;9.626;2023-04-06T02:45:45;2.00;99.90
12872;DHT22;6504;53.766;9.626;2023-04-06T02:48:14;2.00;99.90
12872;DHT22;6504;53.766;9.626;2023-04-06T02:50:44;2.00;99.90
12872;DHT22;6504;53.766;9.626;2023-04-06T02:53:12;2.00;99.90
12872;DHT22;6504;53.766;9.626;2023-04-06T02:55:40;2.00;99.90
12872;DHT22;6504;53.766;9.626;2023-04-06T02:58:08;1.90;99.90
12872;DHT22;6504;53.766;9.626;2023-04-06T03:00:37;1.90;99.90
12872;DHT22;6504;53.766;9.626;2023-04-06T03:03:05;1.80;99.90
12872;DHT22;6504;53.766;9.626;2023-04-06T03:05:34;1.80;99.90
12872;DHT22;6504;53.766;9.626;2023-04-06T03:08:04;1.70;99.90
12872;DHT22;6504;53.766;9.626;2023-04-06T03:10:32;1.60;99.90
12872;DHT22;6504;53.766;9.626;2023-04-06T03:13:00;1.60;99.90
12872;DHT22;6504;53.766;9.626;2023-04-06T03:15:28;1.60;99.90
12872;DHT22;6504;53.766;9.626;2023-04-06T03:17:57;1.60;99.90
12872;DHT22;6504;53.766;9.626;2023-04-06T03:20:26;1.60;99.90
12872;DHT22;6504;53.766;9.626;2023-04-06T03:22:54;1.60;99.90
12872;DHT22;6504;53.766;9.626;2023-04-06T03:25:24;1.60;99.90
12872;DHT22;6504;53.766;9.626;2023-04-06T03:27:52;1.60;99.90
12872;DHT22;6504;53.766;9.626;2023-04-06T03:30:20;1.70;99.90
12872;DHT22;6504;53.766;9.626;2023-04-06T03:32:48;1.70;99.90
12872;DHT22;6504;53.766;9.626;2023-04-06T03:35:17;1.60;99.90
12872;DHT22;6504;53.766;9.626;2023-04-06T03:37:45;1.60;99.90
12872;DHT22;6504;53.766;9.626;2023-04-06T03:40:13;1.60;99.90
12872;DHT22;6504;53.766;9.626;2023-04-06T03:42:43;1.70;99.90
12872;DHT22;6504;53.766;9.626;2023-04-06T03:45:11;1.70;99.90
12872;DHT22;6504;53.766;9.626;2023-04-06T03:47:39;1.70;99.90
12872;DHT22;6504;53.766;9.626;2023-04-06T03:50:08;1.70;99.90
12872;DHT22;6504;53.766;9.626;2023-04-06T03:52:37;1.70;99.90
12872;DHT22;6504;53.766;9.626;2023-04-06T03:55:06;1.60;99.90
12872;DHT22;6504;53.766;9.626;2023-04-06T03:57:34;1.60;99.90
12872;DHT22;6504;53.766;9.626;2023-04-06T04:00:06;1.60;99.90
12872;DHT22;6504;53.766;9.626;2023-04-06T04:02:35;1.60;99.90
12872;DHT22;6504;53.766;9.626;2023-04-06T04:05:04;1.60;99.90
12872;DHT22;6504;53.766;9.626;2023-04-06T04:07:32;1.60;99.90
12872;DHT22;6504;53.766;9.626;2023-04-06T04:10:01;1.60;99.90
12872;DHT22;6504;53.766;9.626;2023-04-06T04:12:29;1.60;99.90
12872;DHT22;6504;53.766;9.626;2023-04-06T04:14:57;1.60;99.90
12872;DHT22;6504;53.766;9.626;2023-04-06T04:17:26;1.60;99.90
12872;DHT22;6504;53.766;9.626;2023-04-06T04:19:55;1.50;99.90
12872;DHT22;6504;53.766;9.626;2023-04-06T04:22:23;1.50;99.90
12872;DHT22;6504;53.766;9.626;2023-04-06T04:24:51;1.50;99.90
12872;DHT22;6504;53.766;9.626;2023-04-06T04:27:19;1.40;99.90
12872;DHT22;6504;53.766;9.626;2023-04-06T04:29:47;1.40;99.90
12872;DHT22;6504;53.766;9.626;2023-04-06T04:32:18;1.40;99.90
12872;DHT22;6504;53.766;9.626;2023-04-06T04:34:48;1.30;99.90
12872;DHT22;6504;53.766;9.626;2023-04-06T04:37:16;1.30;99.90
12872;DHT22;6504;53.766;9.626;2023-04-06T04:39:45;1.30;99.90
12872;DHT22;6504;53.766;9.626;2023-04-06T04:42:13;1.30;99.90
12872;DHT22;6504;53.766;9.626;2023-04-06T04:44:42;1.30;99.90
12872;DHT22;6504;53.766;9.626;2023-04-06T04:47:10;1.30;99.90
12872;DHT22;6504;53.766;9.626;2023-04-06T04:49:38;1.30;99.90
12872;DHT22;6504;53.766;9.626;2023-04-06T04:52:08;1.30;99.90
12872;DHT22;6504;53.766;9.626;2023-04-06T04:54:36;1.30;99.90
12872;DHT22;6504;53.766;9.626;2023-04-06T04:57:04;1.30;99.90
12872;DHT22;6504;53.766;9.626;2023-04-06T04:59:33;1.30;99.90
12872;DHT22;6504;53.766;9.626;2023-04-06T05:02:01;1.20;99.90
12872;DHT22;6504;53.766;9.626;2023-04-06T05:04:30;1.20;99.90
12872;DHT22;6504;53.766;9.626;2023-04-06T05:07:09;1.10;99.90
12872;DHT22;6504;53.766;9.626;2023-04-06T05:09:37;1.10;99.90
12872;DHT22;6504;53.766;9.626;2023-04-06T05:12:06;1.00;99.90
12872;DHT22;6504;53.766;9.626;2023-04-06T05:14:34;1.00;99.90
12872;DHT22;6504;53.766;9.626;2023-04-06T05:17:02;1.00;99.90
12872;DHT22;6504;53.766;9.626;2023-04-06T05:19:30;1.00;99.90
12872;DHT22;6504;53.766;9.626;2023-04-06T05:21:59;0.90;99.90
12872;DHT22;6504;53.766;9.626;2023-04-06T05:24:28;0.90;99.90
12872;DHT22;6504;53.766;9.626;2023-04-06T05:26:57;0.90;99.90
12872;DHT22;6504;53.766;9.626;2023-04-06T05:29:25;0.90;99.90
12872;DHT22;6504;53.766;9.626;2023-04-06T05:31:53;0.90;99.90
12872;DHT22;6504;53.766;9.626;2023-04-06T05:34:21;0.90;99.90
12872;DHT22;6504;53.766;9.626;2023-04-06T05:36:50;0.90;99.90
12872;DHT22;6504;53.766;9.626;2023-04-06T05:39:18;0.90;99.90
12872;DHT22;6504;53.766;9.626;2023-04-06T05:41:49;0.90;99.90
12872;DHT22;6504;53.766;9.626;2023-04-06T05:44:18;0.90;99.90
12872;DHT22;6504;53.766;9.626;2023-04-06T05:46:46;0.90;99.90
12872;DHT22;6504;53.766;9.626;2023-04-06T05:49:14;0.90;99.90
12872;DHT22;6504;53.766;9.626;2023-04-06T05:51:42;0.90;99.90
12872;DHT22;6504;53.766;9.626;2023-04-06T05:54:10;0.90;99.90
12872;DHT22;6504;53.766;9.626;2023-04-06T05:56:38;1.00;99.90
12872;DHT22;6504;53.766;9.626;2023-04-06T05:59:08;1.00;99.90
12872;DHT22;6504;53.766;9.626;2023-04-06T06:01:37;1.00;99.90
12872;DHT22;6504;53.766;9.626;2023-04-06T06:04:05;1.00;99.90
12872;DHT22;6504;53.766;9.626;2023-04-06T06:06:33;1.00;99.90
12872;DHT22;6504;53.766;9.626;2023-04-06T06:09:01;1.00;99.90
12872;DHT22;6504;53.766;9.626;2023-04-06T06:11:30;1.00;99.90
12872;DHT22;6504;53.766;9.626;2023-04-06T06:13:59;1.00;99.90
12872;DHT22;6504;53.766;9.626;2023-04-06T06:16:29;1.00;99.90
12872;DHT22;6504;53.766;9.626;2023-04-06T06:18:57;1.00;99.90
12872;DHT22;6504;53.766;9.626;2023-04-06T06:21:25;1.10;99.90
12872;DHT22;6504;53.766;9.626;2023-04-06T06:23:53;1.10;99.90
12872;DHT22;6504;53.766;9.626;2023-04-06T06:26:22;1.10;99.90
12872;DHT22;6504;53.766;9.626;2023-04-06T06:28:50;1.20;99.90
12872;DHT22;6504;53.766;9.626;2023-04-06T06:31:18;1.30;99.90
12872;DHT22;6504;53.766;9.626;2023-04-06T06:33:48;1.40;99.90
12872;DHT22;6504;53.766;9.626;2023-04-06T06:36:18;1.50;99.90
12872;DHT22;6504;53.766;9.626;2023-04-06T06:38:46;1.60;99.90
12872;DHT22;6504;53.766;9.626;2023-04-06T06:41:15;1.70;99.90
12872;DHT22;6504;53.766;9.626;2023-04-06T06:43:43;1.80;99.90
12872;DHT22;6504;53.766;9.626;2023-04-06T06:46:11;1.90;99.90
12872;DHT22;6504;53.766;9.626;2023-04-06T06:48:40;2.00;99.90
12872;DHT22;6504;53.766;9.626;2023-04-06T06:51:10;2.20;99.90
12872;DHT22;6504;53.766;9.626;2023-04-06T06:53:40;2.30;99.90
12872;DHT22;6504;53.766;9.626;2023-04-06T06:56:08;2.40;99.90
12872;DHT22;6504;53.766;9.626;2023-04-06T06:58:43;2.60;99.90
12872;DHT22;6504;53.766;9.626;2023-04-06T07:01:11;2.80;99.90
12872;DHT22;6504;53.766;9.626;2023-04-06T07:03:41;3.00;99.90
12872;DHT22;6504;53.766;9.626;2023-04-06T07:06:14;3.20;99.90
12872;DHT22;6504;53.766;9.626;2023-04-06T07:08:42;3.30;99.90
12872;DHT22;6504;53.766;9.626;2023-04-06T07:11:10;3.50;99.90
12872;DHT22;6504;53.766;9.626;2023-04-06T07:13:39;3.60;99.90
12872;DHT22;6504;53.766;9.626;2023-04-06T07:16:08;3.80;99.90
12872;DHT22;6504;53.766;9.626;2023-04-06T07:18:38;4.00;99.90
12872;DHT22;6504;53.766;9.626;2023-04-06T07:21:06;4.20;99.90
12872;DHT22;6504;53.766;9.626;2023-04-06T07:23:36;4.30;99.90
12872;DHT22;6504;53.766;9.626;2023-04-06T07:26:04;4.50;99.90
12872;DHT22;6504;53.766;9.626;2023-04-06T07:28:32;4.70;99.90
12872;DHT22;6504;53.766;9.626;2023-04-06T07:31:01;4.80;99.90
12872;DHT22;6504;53.766;9.626;2023-04-06T07:33:29;4.90;99.90
12872;DHT22;6504;53.766;9.626;2023-04-06T07:35:58;5.00;99.90
12872;DHT22;6504;53.766;9.626;2023-04-06T07:38:27;5.10;99.90
12872;DHT22;6504;53.766;9.626;2023-04-06T07:40:56;5.30;99.90
12872;DHT22;6504;53.766;9.626;2023-04-06T07:43:24;5.50;99.90
12872;DHT22;6504;53.766;9.626;2023-04-06T07:45:53;5.60;99.90
12872;DHT22;6504;53.766;9.626;2023-04-06T07:48:22;5.70;99.90
12872;DHT22;6504;53.766;9.626;2023-04-06T07:50:50;5.80;99.90
12872;DHT22;6504;53.766;9.626;2023-04-06T07:53:19;5.90;99.90
12872;DHT22;6504;53.766;9.626;2023-04-06T07:55:47;6.10;99.90
12872;DHT22;6504;53.766;9.626;2023-04-06T07:58:16;6.20;99.90
12872;DHT22;6504;53.766;9.626;2023-04-06T08:00:44;6.30;99.90
12872;DHT22;6504;53.766;9.626;2023-04-06T08:03:13;6.40;99.90
12872;DHT22;6504;53.766;9.626;2023-04-06T08:05:41;6.50;99.90
12872;DHT22;6504;53.766;9.626;2023-04-06T08:08:09;6.60;99.90
12872;DHT22;6504;53.766;9.626;2023-04-06T08:10:37;6.70;99.90
12872;DHT22;6504;53.766;9.626;2023-04-06T08:13:07;6.90;99.90
12872;DHT22;6504;53.766;9.626;2023-04-06T08:15:37;7.00;99.90
12872;DHT22;6504;53.766;9.626;2023-04-06T08:18:05;7.10;99.90
12872;DHT22;6504;53.766;9.626;2023-04-06T08:20:33;7.30;99.90
12872;DHT22;6504;53.766;9.626;2023-04-06T08:23:02;7.30;99.90
12872;DHT22;6504;53.766;9.626;2023-04-06T08:25:30;7.40;99.90
12872;DHT22;6504;53.766;9.626;2023-04-06T08:27:58;7.50;99.90
12872;DHT22;6504;53.766;9.626;2023-04-06T08:30:26;7.60;99.90
12872;DHT22;6504;53.766;9.626;2023-04-06T08:32:56;7.70;99.90
12872;DHT22;6504;53.766;9.626;2023-04-06T08:35:24;7.60;99.90
12872;DHT22;6504;53.766;9.626;2023-04-06T08:37:52;7.70;99.90
12872;DHT22;6504;53.766;9.626;2023-04-06T08:40:20;7.80;99.90
12872;DHT22;6504;53.766;9.626;2023-04-06T08:42:51;7.90;99.90
12872;DHT22;6504;53.766;9.626;2023-04-06T08:45:20;8.00;99.90
12872;DHT22;6504;53.766;9.626;2023-04-06T08:47:50;8.00;99.90
12872;DHT22;6504;53.766;9.626;2023-04-06T08:50:20;8.00;99.90
12872;DHT22;6504;53.766;9.626;2023-04-06T08:52:49;8.00;99.90
12872;DHT22;6504;53.766;9.626;2023-04-06T08:55:17;8.10;99.90
12872;DHT22;6504;53.766;9.626;2023-04-06T08:57:45;8.10;99.90
12872;DHT22;6504;53.766;9.626;2023-04-06T09:00:15;8.10;99.90
12872;DHT22;6504;53.766;9.626;2023-04-06T09:02:45;8.20;99.90
12872;DHT22;6504;53.766;9.626;2023-04-06T09:05:13;8.40;99.90
12872;DHT22;6504;53.766;9.626;2023-04-06T09:07:44;8.40;99.90
12872;DHT22;6504;53.766;9.626;2023-04-06T09:10:13;8.50;99.90
12872;DHT22;6504;53.766;9.626;2023-04-06T09:12:42;8.60;99.90
12872;DHT22;6504;53.766;9.626;2023-04-06T09:15:18;8.60;99.90
12872;DHT22;6504;53.766;9.626;2023-04-06T09:17:50;8.70;99.90
12872;DHT22;6504;53.766;9.626;2023-04-06T09:20:23;8.70;99.90
12872;DHT22;6504;53.766;9.626;2023-04-06T09:22:54;8.70;99.90
12872;DHT22;6504;53.766;9.626;2023-04-06T09:25:24;8.80;99.90
12872;DHT22;6504;53.766;9.626;2023-04-06T09:27:59;8.80;99.90
12872;DHT22;6504;53.766;9.626;2023-04-06T09:30:29;8.80;99.90
12872;DHT22;6504;53.766;9.626;2023-04-06T09:32:58;8.90;99.90
12872;DHT22;6504;53.766;9.626;2023-04-06T09:35:27;8.90;99.90
12872;DHT22;6504;53.766;9.626;2023-04-06T09:37:58;9.00;99.90
12872;DHT22;6504;53.766;9.626;2023-04-06T09:40:26;8.90;99.90
12872;DHT22;6504;53.766;9.626;2023-04-06T09:42:56;9.00;99.90
12872;DHT22;6504;53.766;9.626;2023-04-06T09:45:27;9.10;99.90
12872;DHT22;6504;53.766;9.626;2023-04-06T09:47:57;9.10;99.90
12872;DHT22;6504;53.766;9.626;2023-04-06T09:50:27;9.20;99.90
12872;DHT22;6504;53.766;9.626;2023-04-06T09:52:58;9.30;99.90
12872;DHT22;6504;53.766;9.626;2023-04-06T09:55:31;9.30;99.90
12872;DHT22;6504;53.766;9.626;2023-04-06T09:58:04;9.40;99.90
12872;DHT22;6504;53.766;9.626;2023-04-06T10:00:41;9.40;99.90
12872;DHT22;6504;53.766;9.626;2023-04-06T10:03:17;9.50;99.90
12872;DHT22;6504;53.766;9.626;2023-04-06T10:05:52;9.50;99.90
12872;DHT22;6504;53.766;9.626;2023-04-06T10:08:27;9.50;99.90
12872;DHT22;6504;53.766;9.626;2023-04-06T10:10:59;9.60;99.90
12872;DHT22;6504;53.766;9.626;2023-04-06T10:13:28;9.70;99.90
12872;DHT22;6504;53.766;9.626;2023-04-06T10:15:57;9.80;99.90
12872;DHT22;6504;53.766;9.626;2023-04-06T10:18:28;9.80;99.90
12872;DHT22;6504;53.766;9.626;2023-04-06T10:21:00;10.00;99.90
12872;DHT22;6504;53.766;9.626;2023-04-06T10:23:33;10.00;99.90
12872;DHT22;6504;53.766;9.626;2023-04-06T10:26:03;10.10;99.90
12872;DHT22;6504;53.766;9.626;2023-04-06T10:28:33;10.10;99.90
12872;DHT22;6504;53.766;9.626;2023-04-06T10:31:05;10.20;99.90
12872;DHT22;6504;53.766;9.626;2023-04-06T10:33:34;10.30;99.90
12872;DHT22;6504;53.766;9.626;2023-04-06T10:36:12;10.30;99.90
12872;DHT22;6504;53.766;9.626;2023-04-06T10:38:42;10.40;99.90
12872;DHT22;6504;53.766;9.626;2023-04-06T10:41:12;10.40;99.90
12872;DHT22;6504;53.766;9.626;2023-04-06T10:43:41;10.60;99.90
12872;DHT22;6504;53.766;9.626;2023-04-06T10:46:10;10.60;99.90
12872;DHT22;6504;53.766;9.626;2023-04-06T10:48:40;10.70;99.90
12872;DHT22;6504;53.766;9.626;2023-04-06T10:51:11;10.80;99.90
12872;DHT22;6504;53.766;9.626;2023-04-06T10:53:43;10.90;99.90
12872;DHT22;6504;53.766;9.626;2023-04-06T10:56:13;11.00;99.90
12872;DHT22;6504;53.766;9.626;2023-04-06T10:58:44;11.00;99.90
12872;DHT22;6504;53.766;9.626;2023-04-06T11:01:15;11.10;99.90
12872;DHT22;6504;53.766;9.626;2023-04-06T11:03:44;11.10;99.90
12872;DHT22;6504;53.766;9.626;2023-04-06T11:06:18;11.20;99.90
12872;DHT22;6504;53.766;9.626;2023-04-06T11:08:48;11.30;99.90
12872;DHT22;6504;53.766;9.626;2023-04-06T11:11:19;11.40;99.90
12872;DHT22;6504;53.766;9.626;2023-04-06T11:13:50;11.50;99.90
12872;DHT22;6504;53.766;9.626;2023-04-06T11:16:20;11.60;99.90
12872;DHT22;6504;53.766;9.626;2023-04-06T11:18:49;11.70;99.90
12872;DHT22;6504;53.766;9.626;2023-04-06T11:21:19;11.70;99.90
12872;DHT22;6504;53.766;9.626;2023-04-06T11:23:48;11.80;99.90
12872;DHT22;6504;53.766;9.626;2023-04-06T11:26:16;12.00;99.90
12872;DHT22;6504;53.766;9.626;2023-04-06T11:28:44;12.00;99.90
12872;DHT22;6504;53.766;9.626;2023-04-06T11:31:13;12.00;99.90
12872;DHT22;6504;53.766;9.626;2023-04-06T11:33:41;12.10;99.90
12872;DHT22;6504;53.766;9.626;2023-04-06T11:36:09;12.20;99.90
12872;DHT22;6504;53.766;9.626;2023-04-06T11:38:40;12.10;99.90
12872;DHT22;6504;53.766;9.626;2023-04-06T11:41:10;12.20;99.90
12872;DHT22;6504;53.766;9.626;2023-04-06T11:43:38;12.30;99.90
12872;DHT22;6504;53.766;9.626;2023-04-06T11:46:17;12.30;99.90
12872;DHT22;6504;53.766;9.626;2023-04-06T11:48:46;12.40;99.90
12872;DHT22;6504;53.766;9.626;2023-04-06T11:51:21;12.50;99.90
12872;DHT22;6504;53.766;9.626;2023-04-06T11:53:50;12.60;99.90
12872;DHT22;6504;53.766;9.626;2023-04-06T11:56:29;12.70;99.90
12872;DHT22;6504;53.766;9.626;2023-04-06T11:58:58;12.70;99.90
12872;DHT22;6504;53.766;9.626;2023-04-06T12:01:27;12.70;99.90
12872;DHT22;6504;53.766;9.626;2023-04-06T12:04:00;12.80;99.90
12872;DHT22;6504;53.766;9.626;2023-04-06T12:06:29;12.90;99.90
12872;DHT22;6504;53.766;9.626;2023-04-06T12:08:57;13.00;99.90
12872;DHT22;6504;53.766;9.626;2023-04-06T12:11:26;13.10;99.90
12872;DHT22;6504;53.766;9.626;2023-04-06T12:13:55;13.20;99.90
12872;DHT22;6504;53.766;9.626;2023-04-06T12:16:23;13.30;99.90
12872;DHT22;6504;53.766;9.626;2023-04-06T12:18:52;13.30;99.90
12872;DHT22;6504;53.766;9.626;2023-04-06T12:21:20;13.30;99.90
12872;DHT22;6504;53.766;9.626;2023-04-06T12:23:48;13.30;99.90
12872;DHT22;6504;53.766;9.626;2023-04-06T12:26:16;13.40;99.90
12872;DHT22;6504;53.766;9.626;2023-04-06T12:28:44;13.60;99.90
12872;DHT22;6504;53.766;9.626;2023-04-06T12:31:18;13.70;99.90
12872;DHT22;6504;53.766;9.626;2023-04-06T12:33:47;13.80;99.90
12872;DHT22;6504;53.766;9.626;2023-04-06T12:36:17;13.90;99.90
12872;DHT22;6504;53.766;9.626;2023-04-06T12:38:47;14.00;99.90
12872;DHT22;6504;53.766;9.626;2023-04-06T12:41:16;14.10;99.90
12872;DHT22;6504;53.766;9.626;2023-04-06T12:43:44;14.00;99.90
12872;DHT22;6504;53.766;9.626;2023-04-06T12:46:12;14.10;99.90
12872;DHT22;6504;53.766;9.626;2023-04-06T12:48:42;14.10;99.90
12872;DHT22;6504;53.766;9.626;2023-04-06T12:51:10;14.20;99.90
12872;DHT22;6504;53.766;9.626;2023-04-06T12:53:39;14.20;99.90
12872;DHT22;6504;53.766;9.626;2023-04-06T12:56:12;14.30;99.90
12872;DHT22;6504;53.766;9.626;2023-04-06T12:58:40;14.30;99.90
12872;DHT22;6504;53.766;9.626;2023-04-06T13:01:10;14.20;99.90
12872;DHT22;6504;53.766;9.626;2023-04-06T13:03:41;14.20;99.90
12872;DHT22;6504;53.766;9.626;2023-04-06T13:06:10;14.20;99.90
12872;DHT22;6504;53.766;9.626;2023-04-06T13:08:39;14.20;99.90
12872;DHT22;6504;53.766;9.626;2023-04-06T13:11:08;14.30;99.90
12872;DHT22;6504;53.766;9.626;2023-04-06T13:13:36;14.30;99.90
12872;DHT22;6504;53.766;9.626;2023-04-06T13:16:07;14.30;99.90
12872;DHT22;6504;53.766;9.626;2023-04-06T13:18:36;14.30;99.90
12872;DHT22;6504;53.766;9.626;2023-04-06T13:21:07;14.30;99.90
12872;DHT22;6504;53.766;9.626;2023-04-06T13:23:35;14.40;99.90
12872;DHT22;6504;53.766;9.626;2023-04-06T13:26:05;14.50;99.90
12872;DHT22;6504;53.766;9.626;2023-04-06T13:28:35;14.60;99.90
12872;DHT22;6504;53.766;9.626;2023-04-06T13:31:06;14.50;99.90
12872;DHT22;6504;53.766;9.626;2023-04-06T13:33:35;14.60;99.90
12872;DHT22;6504;53.766;9.626;2023-04-06T13:36:03;14.60;99.90
12872;DHT22;6504;53.766;9.626;2023-04-06T13:38:33;14.70;99.90
12872;DHT22;6504;53.766;9.626;2023-04-06T13:41:01;14.70;99.90
12872;DHT22;6504;53.766;9.626;2023-04-06T13:43:29;14.80;99.90
12872;DHT22;6504;53.766;9.626;2023-04-06T13:45:58;14.80;99.90
12872;DHT22;6504;53.766;9.626;2023-04-06T13:48:27;14.70;99.90
12872;DHT22;6504;53.766;9.626;2023-04-06T13:50:57;14.70;99.90
12872;DHT22;6504;53.766;9.626;2023-04-06T13:53:25;14.60;99.90
12872;DHT22;6504;53.766;9.626;2023-04-06T13:55:55;14.60;99.90
12872;DHT22;6504;53.766;9.626;2023-04-06T13:58:23;14.70;99.90
12872;DHT22;6504;53.766;9.626;2023-04-06T14:00:51;14.70;99.90
12872;DHT22;6504;53.766;9.626;2023-04-06T14:03:20;14.70;99.90
12872;DHT22;6504;53.766;9.626;2023-04-06T14:05:48;14.70;99.90
12872;DHT22;6504;53.766;9.626;2023-04-06T14:08:16;14.60;99.90
12872;DHT22;6504;53.766;9.626;2023-04-06T14:10:44;14.60;99.90
12872;DHT22;6504;53.766;9.626;2023-04-06T14:13:14;14.60;99.90
12872;DHT22;6504;53.766;9.626;2023-04-06T14:15:42;14.70;99.90
12872;DHT22;6504;53.766;9.626;2023-04-06T14:18:10;14.80;99.90
12872;DHT22;6504;53.766;9.626;2023-04-06T14:20:38;14.80;99.90
12872;DHT22;6504;53.766;9.626;2023-04-06T14:23:06;14.90;99.90
12872;DHT22;6504;53.766;9.626;2023-04-06T14:25:34;15.00;99.90
12872;DHT22;6504;53.766;9.626;2023-04-06T14:28:03;15.00;99.90
12872;DHT22;6504;53.766;9.626;2023-04-06T14:30:32;14.90;99.90
12872;DHT22;6504;53.766;9.626;2023-04-06T14:33:00;14.90;99.90
12872;DHT22;6504;53.766;9.626;2023-04-06T14:35:28;14.90;99.90
12872;DHT22;6504;53.766;9.626;2023-04-06T14:37:59;14.80;99.90
12872;DHT22;6504;53.766;9.626;2023-04-06T14:40:28;14.80;99.90
12872;DHT22;6504;53.766;9.626;2023-04-06T14:42:56;14.80;99.90
12872;DHT22;6504;53.766;9.626;2023-04-06T14:45:24;14.90;99.90
12872;DHT22;6504;53.766;9.626;2023-04-06T14:47:53;14.90;99.90
12872;DHT22;6504;53.766;9.626;2023-04-06T14:50:21;15.00;99.90
12872;DHT22;6504;53.766;9.626;2023-04-06T14:52:49;15.00;99.90
12872;DHT22;6504;53.766;9.626;2023-04-06T14:55:18;15.00;99.90
12872;DHT22;6504;53.766;9.626;2023-04-06T14:57:46;14.90;99.90
12872;DHT22;6504;53.766;9.626;2023-04-06T15:00:15;14.90;99.90
12872;DHT22;6504;53.766;9.626;2023-04-06T15:02:43;14.90;99.90
12872;DHT22;6504;53.766;9.626;2023-04-06T15:05:12;14.90;99.90
12872;DHT22;6504;53.766;9.626;2023-04-06T15:07:41;14.90;99.90
12872;DHT22;6504;53.766;9.626;2023-04-06T15:10:09;14.90;99.90
12872;DHT22;6504;53.766;9.626;2023-04-06T15:12:38;14.80;99.90
12872;DHT22;6504;53.766;9.626;2023-04-06T15:15:07;14.80;99.90
12872;DHT22;6504;53.766;9.626;2023-04-06T15:17:35;14.70;99.90
12872;DHT22;6504;53.766;9.626;2023-04-06T15:20:04;14.70;99.90
12872;DHT22;6504;53.766;9.626;2023-04-06T15:22:35;14.70;99.90
12872;DHT22;6504;53.766;9.626;2023-04-06T15:25:04;14.80;99.90
12872;DHT22;6504;53.766;9.626;2023-04-06T15:27:32;14.70;99.90
12872;DHT22;6504;53.766;9.626;2023-04-06T15:30:00;14.60;99.90
12872;DHT22;6504;53.766;9.626;2023-04-06T15:32:28;14.60;99.90
12872;DHT22;6504;53.766;9.626;2023-04-06T15:34:57;14.60;99.90
12872;DHT22;6504;53.766;9.626;2023-04-06T15:37:26;14.60;99.90
12872;DHT22;6504;53.766;9.626;2023-04-06T15:39:56;14.60;99.90
12872;DHT22;6504;53.766;9.626;2023-04-06T15:42:26;14.60;99.90
12872;DHT22;6504;53.766;9.626;2023-04-06T15:44:55;14.50;99.90
12872;DHT22;6504;53.766;9.626;2023-04-06T15:47:23;14.40;99.90
12872;DHT22;6504;53.766;9.626;2023-04-06T15:49:51;14.40;99.90
12872;DHT22;6504;53.766;9.626;2023-04-06T15:52:20;14.40;99.90
12872;DHT22;6504;53.766;9.626;2023-04-06T15:54:48;14.40;99.90
12872;DHT22;6504;53.766;9.626;2023-04-06T15:57:18;14.40;99.90
12872;DHT22;6504;53.766;9.626;2023-04-06T15:59:46;14.40;99.90
12872;DHT22;6504;53.766;9.626;2023-04-06T16:02:14;14.50;99.90
12872;DHT22;6504;53.766;9.626;2023-04-06T16:04:43;14.40;99.90
12872;DHT22;6504;53.766;9.626;2023-04-06T16:07:11;14.40;99.90